sensor_id;sensor_type;location;lat;lon;timestamp;temperature;humidity
20670;DHT22;10494;50.868;4.180;2023-12-29T00:01:16;10.90;99.90
20670;DHT22;10494;50.868;4.180;2023-12-29T00:03:42;10.90;99.90
20670;DHT22;10494;50.868;4.180;2023-12-29T00:06:07;10.80;1.00
20670;DHT22;10494;50.868;4.180;2023-12-29T00:08:33;10.80;1.00
20670;DHT22;10494;50.868;4.180;2023-12-29T00:10:59;10.80;1.00
20670;DHT22;10494;50.868;4.180;2023-12-29T00:13:25;10.80;1.00
20670;DHT22;10494;50.868;4.180;2023-12-29T00:15:54;10.90;99.90
20670;DHT22;10494;50.868;4.180;2023-12-29T00:18:20;10.90;99.90
20670;DHT22;10494;50.868;4.180;2023-12-29T00:20:46;10.90;99.90
20670;DHT22;10494;50.868;4.180;2023-12-29T00:23:12;10.80;1.00
20670;DHT22;10494;50.868;4.180;2023-12-29T00:25:38;10.90;1.00
20670;DHT22;10494;50.868;4.180;2023-12-29T00:28:04;10.90;1.00
20670;DHT22;10494;50.868;4.180;2023-12-29T00:30:30;10.80;1.00
20670;DHT22;10494;50.868;4.180;2023-12-29T00:32:56;10.90;1.00
20670;DHT22;10494;50.868;4.180;2023-12-29T00:35:22;10.80;1.00
20670;DHT22;10494;50.868;4.180;2023-12-29T00:37:49;10.80;1.00
20670;DHT22;10494;50.868;4.180;2023-12-29T00:40:15;10.70;1.00
20670;DHT22;10494;50.868;4.180;2023-12-29T00:42:41;10.70;1.00
20670;DHT22;10494;50.868;4.180;2023-12-29T00:45:07;10.70;1.00
20670;DHT22;10494;50.868;4.180;2023-12-29T00:47:33;10.70;1.00
20670;DHT22;10494;50.868;4.180;2023-12-29T00:50:00;10.80;1.00
20670;DHT22;10494;50.868;4.180;2023-12-29T00:52:25;10.80;1.00
20670;DHT22;10494;50.868;4.180;2023-12-29T00:54:51;10.90;1.00
20670;DHT22;10494;50.868;4.180;2023-12-29T00:57:16;10.90;1.00
20670;DHT22;10494;50.868;4.180;2023-12-29T00:59:42;10.90;1.00
20670;DHT22;10494;50.868;4.180;2023-12-29T01:02:09;10.90;1.00
20670;DHT22;10494;50.868;4.180;2023-12-29T01:04:37;10.90;1.00
20670;DHT22;10494;50.868;4.180;2023-12-29T01:07:04;10.90;1.00
20670;DHT22;10494;50.868;4.180;2023-12-29T01:09:30;10.90;1.00
20670;DHT22;10494;50.868;4.180;2023-12-29T01:11:56;10.90;1.00
20670;DHT22;10494;50.868;4.180;2023-12-29T01:14:21;10.90;1.00
20670;DHT22;10494;50.868;4.180;2023-12-29T01:16:47;10.80;1.00
20670;DHT22;10494;50.868;4.180;2023-12-29T01:19:13;10.80;99.90
20670;DHT22;10494;50.868;4.180;2023-12-29T01:21:39;10.80;99.90
20670;DHT22;10494;50.868;4.180;2023-12-29T01:24:04;10.80;99.90
20670;DHT22;10494;50.868;4.180;2023-12-29T01:26:38;10.80;1.00
20670;DHT22;10494;50.868;4.180;2023-12-29T01:29:04;10.90;99.90
20670;DHT22;10494;50.868;4.180;2023-12-29T01:31:30;11.00;1.00
20670;DHT22;10494;50.868;4.180;2023-12-29T01:33:56;11.00;1.00
20670;DHT22;10494;50.868;4.180;2023-12-29T01:36:22;10.90;1.00
20670;DHT22;10494;50.868;4.180;2023-12-29T01:38:48;10.80;1.00
20670;DHT22;10494;50.868;4.180;2023-12-29T01:41:14;10.80;1.00
20670;DHT22;10494;50.868;4.180;2023-12-29T01:46:25;10.90;1.00
20670;DHT22;10494;50.868;4.180;2023-12-29T01:48:51;10.90;1.00
20670;DHT22;10494;50.868;4.180;2023-12-29T01:51:17;10.80;1.00
20670;DHT22;10494;50.868;4.180;2023-12-29T01:53:45;10.90;1.00
20670;DHT22;10494;50.868;4.180;2023-12-29T01:56:11;10.90;1.00
20670;DHT22;10494;50.868;4.180;2023-12-29T01:58:37;10.80;1.00
20670;DHT22;10494;50.868;4.180;2023-12-29T02:01:03;10.90;1.00
20670;DHT22;10494;50.868;4.180;2023-12-29T02:03:30;10.90;1.00
20670;DHT22;10494;50.868;4.180;2023-12-29T02:05:57;10.90;1.00
20670;DHT22;10494;50.868;4.180;2023-12-29T02:08:23;10.90;1.00
20670;DHT22;10494;50.868;4.180;2023-12-29T02:10:48;11.00;1.00
20670;DHT22;10494;50.868;4.180;2023-12-29T02:13:14;10.90;1.00
20670;DHT22;10494;50.868;4.180;2023-12-29T02:15:40;11.00;1.00
20670;DHT22;10494;50.868;4.180;2023-12-29T02:18:08;10.90;1.00
20670;DHT22;10494;50.868;4.180;2023-12-29T02:20:35;11.00;1.00
20670;DHT22;10494;50.868;4.180;2023-12-29T02:23:02;11.00;1.00
20670;DHT22;10494;50.868;4.180;2023-12-29T02:25:29;11.00;1.00
20670;DHT22;10494;50.868;4.180;2023-12-29T02:28:02;11.00;1.00
20670;DHT22;10494;50.868;4.180;2023-12-29T02:33:16;10.90;20.60
20670;DHT22;10494;50.868;4.180;2023-12-29T02:35:45;10.90;1.00
20670;DHT22;10494;50.868;4.180;2023-12-29T02:38:11;10.90;1.00
20670;DHT22;10494;50.868;4.180;2023-12-29T02:40:38;10.90;1.00
20670;DHT22;10494;50.868;4.180;2023-12-29T02:43:03;10.90;1.00
20670;DHT22;10494;50.868;4.180;2023-12-29T02:45:29;10.90;1.00
20670;DHT22;10494;50.868;4.180;2023-12-29T02:47:55;10.90;1.00
20670;DHT22;10494;50.868;4.180;2023-12-29T02:50:21;11.00;1.00
20670;DHT22;10494;50.868;4.180;2023-12-29T02:52:46;10.90;1.00
20670;DHT22;10494;50.868;4.180;2023-12-29T02:55:12;10.90;99.90
20670;DHT22;10494;50.868;4.180;2023-12-29T02:57:38;10.90;99.90
20670;DHT22;10494;50.868;4.180;2023-12-29T03:00:05;10.90;99.90
20670;DHT22;10494;50.868;4.180;2023-12-29T03:02:31;10.90;40.80
20670;DHT22;10494;50.868;4.180;2023-12-29T03:04:57;10.90;99.90
20670;DHT22;10494;50.868;4.180;2023-12-29T03:07:22;10.90;99.90
20670;DHT22;10494;50.868;4.180;2023-12-29T03:09:48;10.80;99.90
20670;DHT22;10494;50.868;4.180;2023-12-29T03:12:14;10.80;99.90
20670;DHT22;10494;50.868;4.180;2023-12-29T03:14:39;10.80;99.90
20670;DHT22;10494;50.868;4.180;2023-12-29T03:17:05;10.80;99.90
20670;DHT22;10494;50.868;4.180;2023-12-29T03:19:30;10.70;1.00
20670;DHT22;10494;50.868;4.180;2023-12-29T03:21:56;10.70;1.00
20670;DHT22;10494;50.868;4.180;2023-12-29T03:24:22;10.70;1.00
20670;DHT22;10494;50.868;4.180;2023-12-29T03:26:47;10.70;1.00
20670;DHT22;10494;50.868;4.180;2023-12-29T03:29:13;10.60;1.00
20670;DHT22;10494;50.868;4.180;2023-12-29T03:31:39;10.60;1.00
20670;DHT22;10494;50.868;4.180;2023-12-29T03:34:07;10.70;1.00
20670;DHT22;10494;50.868;4.180;2023-12-29T03:36:33;10.60;1.00
20670;DHT22;10494;50.868;4.180;2023-12-29T03:38:59;10.60;1.00
20670;DHT22;10494;50.868;4.180;2023-12-29T03:41:24;10.60;1.00
20670;DHT22;10494;50.868;4.180;2023-12-29T03:43:50;10.60;1.00
20670;DHT22;10494;50.868;4.180;2023-12-29T03:46:20;10.50;99.90
20670;DHT22;10494;50.868;4.180;2023-12-29T03:48:46;10.50;20.80
20670;DHT22;10494;50.868;4.180;2023-12-29T03:51:13;10.50;99.90
20670;DHT22;10494;50.868;4.180;2023-12-29T03:53:38;10.40;99.90
20670;DHT22;10494;50.868;4.180;2023-12-29T03:56:15;10.50;99.90
20670;DHT22;10494;50.868;4.180;2023-12-29T03:58:47;10.60;73.90
20670;DHT22;10494;50.868;4.180;2023-12-29T04:01:14;10.60;1.00
20670;DHT22;10494;50.868;4.180;2023-12-29T04:03:40;10.60;99.90
20670;DHT22;10494;50.868;4.180;2023-12-29T04:06:07;10.50;99.90
20670;DHT22;10494;50.868;4.180;2023-12-29T04:08:36;10.50;99.90
20670;DHT22;10494;50.868;4.180;2023-12-29T04:11:03;10.60;99.90
20670;DHT22;10494;50.868;4.180;2023-12-29T04:13:29;10.50;99.90
20670;DHT22;10494;50.868;4.180;2023-12-29T04:15:55;10.40;1.00
20670;DHT22;10494;50.868;4.180;2023-12-29T04:18:22;10.40;1.00
20670;DHT22;10494;50.868;4.180;2023-12-29T04:20:48;10.40;1.00
20670;DHT22;10494;50.868;4.180;2023-12-29T04:23:13;10.40;1.00
20670;DHT22;10494;50.868;4.180;2023-12-29T04:25:39;10.40;1.00
20670;DHT22;10494;50.868;4.180;2023-12-29T04:28:06;10.40;1.00
20670;DHT22;10494;50.868;4.180;2023-12-29T04:30:32;10.50;1.00
20670;DHT22;10494;50.868;4.180;2023-12-29T04:32:58;10.50;1.00
20670;DHT22;10494;50.868;4.180;2023-12-29T04:35:23;10.50;1.00
20670;DHT22;10494;50.868;4.180;2023-12-29T04:37:49;10.40;1.00
20670;DHT22;10494;50.868;4.180;2023-12-29T04:40:16;10.40;1.00
20670;DHT22;10494;50.868;4.180;2023-12-29T04:42:42;10.50;1.00
20670;DHT22;10494;50.868;4.180;2023-12-29T04:45:08;10.50;1.00
20670;DHT22;10494;50.868;4.180;2023-12-29T04:47:34;10.40;1.00
20670;DHT22;10494;50.868;4.180;2023-12-29T04:49:59;10.50;1.00
20670;DHT22;10494;50.868;4.180;2023-12-29T04:52:25;10.40;85.40
20670;DHT22;10494;50.868;4.180;2023-12-29T04:54:51;10.40;89.70
20670;DHT22;10494;50.868;4.180;2023-12-29T04:57:16;10.40;91.90
20670;DHT22;10494;50.868;4.180;2023-12-29T04:59:42;10.40;99.90
20670;DHT22;10494;50.868;4.180;2023-12-29T05:02:08;10.30;99.90
20670;DHT22;10494;50.868;4.180;2023-12-29T05:04:33;10.40;99.90
20670;DHT22;10494;50.868;4.180;2023-12-29T05:06:59;10.40;99.90
20670;DHT22;10494;50.868;4.180;2023-12-29T05:09:25;10.40;99.90
20670;DHT22;10494;50.868;4.180;2023-12-29T05:11:50;10.40;99.90
20670;DHT22;10494;50.868;4.180;2023-12-29T05:14:16;10.40;1.00
20670;DHT22;10494;50.868;4.180;2023-12-29T05:16:42;10.40;99.90
20670;DHT22;10494;50.868;4.180;2023-12-29T05:19:08;10.40;99.90
20670;DHT22;10494;50.868;4.180;2023-12-29T05:21:33;10.40;1.00
20670;DHT22;10494;50.868;4.180;2023-12-29T05:23:59;10.30;1.00
20670;DHT22;10494;50.868;4.180;2023-12-29T05:26:25;10.30;1.00
20670;DHT22;10494;50.868;4.180;2023-12-29T05:28:51;10.30;1.00
20670;DHT22;10494;50.868;4.180;2023-12-29T05:31:17;10.30;99.90
20670;DHT22;10494;50.868;4.180;2023-12-29T05:33:44;10.20;99.90
20670;DHT22;10494;50.868;4.180;2023-12-29T05:36:10;10.20;99.90
20670;DHT22;10494;50.868;4.180;2023-12-29T05:38:37;10.10;1.00
20670;DHT22;10494;50.868;4.180;2023-12-29T05:41:03;10.10;1.00
20670;DHT22;10494;50.868;4.180;2023-12-29T05:43:31;10.10;1.00
20670;DHT22;10494;50.868;4.180;2023-12-29T05:45:57;10.10;1.00
20670;DHT22;10494;50.868;4.180;2023-12-29T05:48:23;10.10;1.00
20670;DHT22;10494;50.868;4.180;2023-12-29T05:50:50;10.10;1.00
20670;DHT22;10494;50.868;4.180;2023-12-29T05:53:15;10.10;1.00
20670;DHT22;10494;50.868;4.180;2023-12-29T05:55:43;10.10;1.00
20670;DHT22;10494;50.868;4.180;2023-12-29T05:58:09;10.00;1.00
20670;DHT22;10494;50.868;4.180;2023-12-29T06:00:38;10.00;1.00
20670;DHT22;10494;50.868;4.180;2023-12-29T06:03:05;9.90;1.40
20670;DHT22;10494;50.868;4.180;2023-12-29T06:05:31;9.80;30.70
20670;DHT22;10494;50.868;4.180;2023-12-29T06:07:57;9.80;62.80
20670;DHT22;10494;50.868;4.180;2023-12-29T06:10:22;9.60;96.60
20670;DHT22;10494;50.868;4.180;2023-12-29T06:12:49;9.60;99.90
20670;DHT22;10494;50.868;4.180;2023-12-29T06:15:14;9.60;99.90
20670;DHT22;10494;50.868;4.180;2023-12-29T06:17:40;9.60;99.90
20670;DHT22;10494;50.868;4.180;2023-12-29T06:20:07;9.60;99.90
20670;DHT22;10494;50.868;4.180;2023-12-29T06:22:39;9.60;99.90
20670;DHT22;10494;50.868;4.180;2023-12-29T06:25:09;9.60;99.90
20670;DHT22;10494;50.868;4.180;2023-12-29T06:27:36;9.60;99.90
20670;DHT22;10494;50.868;4.180;2023-12-29T06:30:07;9.60;99.90
20670;DHT22;10494;50.868;4.180;2023-12-29T06:32:33;9.60;99.90
20670;DHT22;10494;50.868;4.180;2023-12-29T06:34:58;9.50;99.90
20670;DHT22;10494;50.868;4.180;2023-12-29T06:37:24;9.60;99.90
20670;DHT22;10494;50.868;4.180;2023-12-29T06:39:49;9.50;99.90
20670;DHT22;10494;50.868;4.180;2023-12-29T06:42:15;9.50;99.90
20670;DHT22;10494;50.868;4.180;2023-12-29T06:44:41;9.50;99.90
20670;DHT22;10494;50.868;4.180;2023-12-29T06:47:06;9.60;99.90
20670;DHT22;10494;50.868;4.180;2023-12-29T06:49:35;9.60;99.90
20670;DHT22;10494;50.868;4.180;2023-12-29T06:52:01;9.60;99.90
20670;DHT22;10494;50.868;4.180;2023-12-29T06:54:27;9.60;99.90
20670;DHT22;10494;50.868;4.180;2023-12-29T06:56:53;9.60;99.90
20670;DHT22;10494;50.868;4.180;2023-12-29T06:59:18;9.60;99.90
20670;DHT22;10494;50.868;4.180;2023-12-29T07:01:45;9.50;99.90
20670;DHT22;10494;50.868;4.180;2023-12-29T07:04:11;9.50;99.90
20670;DHT22;10494;50.868;4.180;2023-12-29T07:06:38;9.50;99.90
20670;DHT22;10494;50.868;4.180;2023-12-29T07:09:03;9.50;99.90
20670;DHT22;10494;50.868;4.180;2023-12-29T07:11:29;9.50;99.90
20670;DHT22;10494;50.868;4.180;2023-12-29T07:13:55;9.60;99.90
20670;DHT22;10494;50.868;4.180;2023-12-29T07:16:21;9.70;99.90
20670;DHT22;10494;50.868;4.180;2023-12-29T07:18:46;9.60;99.90
20670;DHT22;10494;50.868;4.180;2023-12-29T07:21:13;9.60;99.90
20670;DHT22;10494;50.868;4.180;2023-12-29T07:23:39;9.60;99.90
20670;DHT22;10494;50.868;4.180;2023-12-29T07:26:05;9.60;99.90
20670;DHT22;10494;50.868;4.180;2023-12-29T07:28:34;9.70;99.90
20670;DHT22;10494;50.868;4.180;2023-12-29T07:31:01;9.70;99.90
20670;DHT22;10494;50.868;4.180;2023-12-29T07:33:27;9.70;99.90
20670;DHT22;10494;50.868;4.180;2023-12-29T07:35:52;9.70;99.90
20670;DHT22;10494;50.868;4.180;2023-12-29T07:38:18;9.70;99.90
20670;DHT22;10494;50.868;4.180;2023-12-29T07:40:44;9.70;99.90
20670;DHT22;10494;50.868;4.180;2023-12-29T07:43:10;9.70;99.90
20670;DHT22;10494;50.868;4.180;2023-12-29T07:45:35;9.70;99.90
20670;DHT22;10494;50.868;4.180;2023-12-29T07:48:02;9.60;99.90
20670;DHT22;10494;50.868;4.180;2023-12-29T07:50:28;9.70;99.90
20670;DHT22;10494;50.868;4.180;2023-12-29T07:52:54;9.70;99.90
20670;DHT22;10494;50.868;4.180;2023-12-29T07:55:19;9.80;99.90
20670;DHT22;10494;50.868;4.180;2023-12-29T07:57:45;9.80;99.90
20670;DHT22;10494;50.868;4.180;2023-12-29T08:00:13;9.80;99.90
20670;DHT22;10494;50.868;4.180;2023-12-29T08:02:40;9.80;99.90
20670;DHT22;10494;50.868;4.180;2023-12-29T08:05:05;9.80;99.90
20670;DHT22;10494;50.868;4.180;2023-12-29T08:07:34;9.80;99.90
20670;DHT22;10494;50.868;4.180;2023-12-29T08:10:00;9.90;99.90
20670;DHT22;10494;50.868;4.180;2023-12-29T08:12:26;9.90;99.90
20670;DHT22;10494;50.868;4.180;2023-12-29T08:14:53;9.90;99.90
20670;DHT22;10494;50.868;4.180;2023-12-29T08:17:19;9.90;99.90
20670;DHT22;10494;50.868;4.180;2023-12-29T08:19:44;9.90;99.90
20670;DHT22;10494;50.868;4.180;2023-12-29T08:22:10;9.90;99.90
20670;DHT22;10494;50.868;4.180;2023-12-29T08:24:36;9.90;99.90
20670;DHT22;10494;50.868;4.180;2023-12-29T08:27:02;10.00;99.90
20670;DHT22;10494;50.868;4.180;2023-12-29T08:29:28;10.00;99.90
20670;DHT22;10494;50.868;4.180;2023-12-29T08:31:54;10.00;99.90
20670;DHT22;10494;50.868;4.180;2023-12-29T08:34:20;10.10;99.90
20670;DHT22;10494;50.868;4.180;2023-12-29T08:36:45;10.20;99.90
20670;DHT22;10494;50.868;4.180;2023-12-29T08:39:11;10.20;99.90
20670;DHT22;10494;50.868;4.180;2023-12-29T08:41:37;10.20;99.90
20670;DHT22;10494;50.868;4.180;2023-12-29T08:44:03;10.30;99.90
20670;DHT22;10494;50.868;4.180;2023-12-29T08:46:29;10.30;99.90
20670;DHT22;10494;50.868;4.180;2023-12-29T08:48:55;10.30;99.90
20670;DHT22;10494;50.868;4.180;2023-12-29T08:51:20;10.30;99.90
20670;DHT22;10494;50.868;4.180;2023-12-29T08:53:46;10.30;99.90
20670;DHT22;10494;50.868;4.180;2023-12-29T08:56:12;10.30;99.90
20670;DHT22;10494;50.868;4.180;2023-12-29T08:58:39;10.30;99.90
20670;DHT22;10494;50.868;4.180;2023-12-29T09:01:05;10.40;99.90
20670;DHT22;10494;50.868;4.180;2023-12-29T09:03:31;10.30;99.90
20670;DHT22;10494;50.868;4.180;2023-12-29T09:05:56;10.30;99.90
20670;DHT22;10494;50.868;4.180;2023-12-29T09:08:22;10.40;99.90
20670;DHT22;10494;50.868;4.180;2023-12-29T09:10:48;10.40;99.90
20670;DHT22;10494;50.868;4.180;2023-12-29T09:13:13;10.40;99.90
20670;DHT22;10494;50.868;4.180;2023-12-29T09:15:39;10.30;99.90
20670;DHT22;10494;50.868;4.180;2023-12-29T09:18:05;10.40;99.90
20670;DHT22;10494;50.868;4.180;2023-12-29T09:20:31;10.30;99.90
20670;DHT22;10494;50.868;4.180;2023-12-29T09:22:57;10.30;99.90
20670;DHT22;10494;50.868;4.180;2023-12-29T09:25:23;10.30;99.90
20670;DHT22;10494;50.868;4.180;2023-12-29T09:27:49;10.30;99.90
20670;DHT22;10494;50.868;4.180;2023-12-29T09:30:17;10.20;99.90
20670;DHT22;10494;50.868;4.180;2023-12-29T09:32:44;10.20;99.90
20670;DHT22;10494;50.868;4.180;2023-12-29T09:35:09;10.20;99.90
20670;DHT22;10494;50.868;4.180;2023-12-29T09:37:35;10.30;99.90
20670;DHT22;10494;50.868;4.180;2023-12-29T09:40:01;10.30;99.90
20670;DHT22;10494;50.868;4.180;2023-12-29T09:42:28;10.40;99.90
20670;DHT22;10494;50.868;4.180;2023-12-29T09:44:55;10.40;99.90
20670;DHT22;10494;50.868;4.180;2023-12-29T09:47:23;10.40;99.90
20670;DHT22;10494;50.868;4.180;2023-12-29T09:49:49;10.50;99.90
20670;DHT22;10494;50.868;4.180;2023-12-29T09:52:16;10.60;99.90
20670;DHT22;10494;50.868;4.180;2023-12-29T09:54:42;10.50;99.90
20670;DHT22;10494;50.868;4.180;2023-12-29T09:57:09;10.50;99.90
20670;DHT22;10494;50.868;4.180;2023-12-29T09:59:35;10.50;99.90
20670;DHT22;10494;50.868;4.180;2023-12-29T10:02:05;10.50;99.90
20670;DHT22;10494;50.868;4.180;2023-12-29T10:04:31;10.50;99.90
20670;DHT22;10494;50.868;4.180;2023-12-29T10:06:57;10.50;99.90
20670;DHT22;10494;50.868;4.180;2023-12-29T10:09:25;10.60;99.90
20670;DHT22;10494;50.868;4.180;2023-12-29T10:11:53;10.70;99.90
20670;DHT22;10494;50.868;4.180;2023-12-29T10:14:23;10.80;99.90
20670;DHT22;10494;50.868;4.180;2023-12-29T10:17:01;10.80;99.90
20670;DHT22;10494;50.868;4.180;2023-12-29T10:22:21;10.90;99.90
20670;DHT22;10494;50.868;4.180;2023-12-29T10:24:50;11.00;99.90
20670;DHT22;10494;50.868;4.180;2023-12-29T10:27:16;11.10;99.90
20670;DHT22;10494;50.868;4.180;2023-12-29T10:29:42;11.10;99.90
20670;DHT22;10494;50.868;4.180;2023-12-29T10:32:08;11.10;99.90
20670;DHT22;10494;50.868;4.180;2023-12-29T10:34:35;11.10;99.90
20670;DHT22;10494;50.868;4.180;2023-12-29T10:37:01;11.10;99.90
20670;DHT22;10494;50.868;4.180;2023-12-29T10:39:29;11.10;99.90
20670;DHT22;10494;50.868;4.180;2023-12-29T10:44:32;11.00;99.90
20670;DHT22;10494;50.868;4.180;2023-12-29T10:46:57;11.00;99.90
20670;DHT22;10494;50.868;4.180;2023-12-29T10:49:23;11.00;99.90
20670;DHT22;10494;50.868;4.180;2023-12-29T10:51:49;11.00;99.90
20670;DHT22;10494;50.868;4.180;2023-12-29T10:54:21;11.10;99.90
20670;DHT22;10494;50.868;4.180;2023-12-29T10:57:02;11.10;99.90
20670;DHT22;10494;50.868;4.180;2023-12-29T10:59:28;11.10;99.90
20670;DHT22;10494;50.868;4.180;2023-12-29T11:01:55;11.20;99.90
20670;DHT22;10494;50.868;4.180;2023-12-29T11:04:24;11.30;99.90
20670;DHT22;10494;50.868;4.180;2023-12-29T11:06:50;11.30;99.90
20670;DHT22;10494;50.868;4.180;2023-12-29T11:09:30;11.30;99.90
20670;DHT22;10494;50.868;4.180;2023-12-29T11:12:00;11.30;99.90
20670;DHT22;10494;50.868;4.180;2023-12-29T11:14:26;11.40;99.90
20670;DHT22;10494;50.868;4.180;2023-12-29T11:16:54;11.40;99.90
20670;DHT22;10494;50.868;4.180;2023-12-29T11:19:21;11.40;99.90
20670;DHT22;10494;50.868;4.180;2023-12-29T11:21:49;11.40;99.90
20670;DHT22;10494;50.868;4.180;2023-12-29T11:24:17;11.30;99.90
20670;DHT22;10494;50.868;4.180;2023-12-29T11:26:43;11.30;99.90
20670;DHT22;10494;50.868;4.180;2023-12-29T11:29:10;11.40;99.90
20670;DHT22;10494;50.868;4.180;2023-12-29T11:31:37;11.40;99.90
20670;DHT22;10494;50.868;4.180;2023-12-29T11:34:26;11.40;99.90
20670;DHT22;10494;50.868;4.180;2023-12-29T11:37:01;11.30;99.90
20670;DHT22;10494;50.868;4.180;2023-12-29T11:39:40;11.30;99.90
20670;DHT22;10494;50.868;4.180;2023-12-29T11:42:21;11.30;99.90
20670;DHT22;10494;50.868;4.180;2023-12-29T11:44:48;11.30;99.90
20670;DHT22;10494;50.868;4.180;2023-12-29T11:47:36;11.20;99.90
20670;DHT22;10494;50.868;4.180;2023-12-29T11:50:03;11.10;99.90
20670;DHT22;10494;50.868;4.180;2023-12-29T11:52:36;11.10;99.90
20670;DHT22;10494;50.868;4.180;2023-12-29T11:55:13;11.20;99.90
20670;DHT22;10494;50.868;4.180;2023-12-29T11:57:40;11.10;99.90
20670;DHT22;10494;50.868;4.180;2023-12-29T12:00:07;11.10;99.90
20670;DHT22;10494;50.868;4.180;2023-12-29T12:02:33;11.00;99.90
20670;DHT22;10494;50.868;4.180;2023-12-29T12:04:59;11.00;99.90
20670;DHT22;10494;50.868;4.180;2023-12-29T12:09:50;10.90;99.90
20670;DHT22;10494;50.868;4.180;2023-12-29T12:12:40;10.90;99.90
20670;DHT22;10494;50.868;4.180;2023-12-29T12:17:59;10.70;99.90
20670;DHT22;10494;50.868;4.180;2023-12-29T12:20:25;10.60;99.90
20670;DHT22;10494;50.868;4.180;2023-12-29T12:23:10;10.50;99.90
20670;DHT22;10494;50.868;4.180;2023-12-29T12:25:39;10.50;99.90
20670;DHT22;10494;50.868;4.180;2023-12-29T12:28:09;10.40;99.90
20670;DHT22;10494;50.868;4.180;2023-12-29T12:30:35;10.40;99.90
20670;DHT22;10494;50.868;4.180;2023-12-29T12:33:02;10.40;99.90
20670;DHT22;10494;50.868;4.180;2023-12-29T12:35:28;10.40;99.90
20670;DHT22;10494;50.868;4.180;2023-12-29T12:38:13;10.40;99.90
20670;DHT22;10494;50.868;4.180;2023-12-29T12:40:39;10.50;99.90
20670;DHT22;10494;50.868;4.180;2023-12-29T12:43:06;10.50;99.90
20670;DHT22;10494;50.868;4.180;2023-12-29T12:45:46;10.50;99.90
20670;DHT22;10494;50.868;4.180;2023-12-29T12:48:20;10.60;99.90
20670;DHT22;10494;50.868;4.180;2023-12-29T12:50:46;10.70;99.90
20670;DHT22;10494;50.868;4.180;2023-12-29T12:53:13;10.80;99.90
20670;DHT22;10494;50.868;4.180;2023-12-29T12:55:50;10.80;99.90
20670;DHT22;10494;50.868;4.180;2023-12-29T12:58:21;10.80;99.90
20670;DHT22;10494;50.868;4.180;2023-12-29T13:00:47;10.80;99.90
20670;DHT22;10494;50.868;4.180;2023-12-29T13:03:13;10.80;99.90
20670;DHT22;10494;50.868;4.180;2023-12-29T13:05:40;10.90;99.90
20670;DHT22;10494;50.868;4.180;2023-12-29T13:08:06;11.00;99.90
20670;DHT22;10494;50.868;4.180;2023-12-29T13:10:33;11.00;99.90
20670;DHT22;10494;50.868;4.180;2023-12-29T13:12:58;10.90;99.90
20670;DHT22;10494;50.868;4.180;2023-12-29T13:15:24;11.10;99.90
20670;DHT22;10494;50.868;4.180;2023-12-29T13:17:51;11.00;99.90
20670;DHT22;10494;50.868;4.180;2023-12-29T13:20:17;10.90;99.90
20670;DHT22;10494;50.868;4.180;2023-12-29T13:22:43;10.90;99.90
20670;DHT22;10494;50.868;4.180;2023-12-29T13:25:10;10.90;99.90
20670;DHT22;10494;50.868;4.180;2023-12-29T13:27:39;11.00;99.90
20670;DHT22;10494;50.868;4.180;2023-12-29T13:30:06;11.00;99.90
20670;DHT22;10494;50.868;4.180;2023-12-29T13:32:32;11.10;99.90
20670;DHT22;10494;50.868;4.180;2023-12-29T13:35:21;11.10;99.90
20670;DHT22;10494;50.868;4.180;2023-12-29T13:40:26;11.00;99.90
20670;DHT22;10494;50.868;4.180;2023-12-29T13:42:58;10.90;99.90
20670;DHT22;10494;50.868;4.180;2023-12-29T13:45:25;10.90;99.90
20670;DHT22;10494;50.868;4.180;2023-12-29T13:47:53;10.80;99.90
20670;DHT22;10494;50.868;4.180;2023-12-29T13:50:19;10.80;99.90
20670;DHT22;10494;50.868;4.180;2023-12-29T13:52:45;10.90;99.90
20670;DHT22;10494;50.868;4.180;2023-12-29T13:55:11;10.80;99.90
20670;DHT22;10494;50.868;4.180;2023-12-29T13:57:36;10.70;99.90
20670;DHT22;10494;50.868;4.180;2023-12-29T14:00:15;10.70;99.90
20670;DHT22;10494;50.868;4.180;2023-12-29T14:02:44;10.70;99.90
20670;DHT22;10494;50.868;4.180;2023-12-29T14:05:23;10.70;99.90
20670;DHT22;10494;50.868;4.180;2023-12-29T14:07:58;10.70;99.90
20670;DHT22;10494;50.868;4.180;2023-12-29T14:10:37;10.60;99.90
20670;DHT22;10494;50.868;4.180;2023-12-29T14:13:14;10.60;99.90
20670;DHT22;10494;50.868;4.180;2023-12-29T14:15:41;10.70;99.90
20670;DHT22;10494;50.868;4.180;2023-12-29T14:20:39;10.80;99.90
20670;DHT22;10494;50.868;4.180;2023-12-29T14:23:08;10.70;99.90
20670;DHT22;10494;50.868;4.180;2023-12-29T14:25:35;10.70;99.90
20670;DHT22;10494;50.868;4.180;2023-12-29T14:28:03;10.80;99.90
20670;DHT22;10494;50.868;4.180;2023-12-29T14:30:29;10.80;99.90
20670;DHT22;10494;50.868;4.180;2023-12-29T14:32:57;10.80;99.90
20670;DHT22;10494;50.868;4.180;2023-12-29T14:35:23;10.80;99.90
20670;DHT22;10494;50.868;4.180;2023-12-29T14:37:49;10.90;99.90
20670;DHT22;10494;50.868;4.180;2023-12-29T14:40:15;10.90;99.90
20670;DHT22;10494;50.868;4.180;2023-12-29T14:42:41;10.90;99.90
20670;DHT22;10494;50.868;4.180;2023-12-29T14:45:08;10.90;99.90
20670;DHT22;10494;50.868;4.180;2023-12-29T14:47:35;10.80;99.90
20670;DHT22;10494;50.868;4.180;2023-12-29T14:50:01;10.80;99.90
20670;DHT22;10494;50.868;4.180;2023-12-29T14:52:29;10.80;99.90
20670;DHT22;10494;50.868;4.180;2023-12-29T14:54:55;10.80;99.90
20670;DHT22;10494;50.868;4.180;2023-12-29T14:57:20;10.80;99.90
20670;DHT22;10494;50.868;4.180;2023-12-29T14:59:46;10.70;99.90
20670;DHT22;10494;50.868;4.180;2023-12-29T15:02:12;10.80;99.90
20670;DHT22;10494;50.868;4.180;2023-12-29T15:04:38;10.80;99.90
20670;DHT22;10494;50.868;4.180;2023-12-29T15:07:04;10.70;99.90
20670;DHT22;10494;50.868;4.180;2023-12-29T15:09:29;10.80;99.90
20670;DHT22;10494;50.868;4.180;2023-12-29T15:11:56;10.80;99.90
20670;DHT22;10494;50.868;4.180;2023-12-29T15:14:22;10.80;99.90
20670;DHT22;10494;50.868;4.180;2023-12-29T15:16:47;10.80;99.90
20670;DHT22;10494;50.868;4.180;2023-12-29T15:19:13;10.70;99.90
20670;DHT22;10494;50.868;4.180;2023-12-29T15:21:39;10.60;99.90
20670;DHT22;10494;50.868;4.180;2023-12-29T15:24:05;10.70;99.90
20670;DHT22;10494;50.868;4.180;2023-12-29T15:26:31;10.70;99.90
20670;DHT22;10494;50.868;4.180;2023-12-29T15:28:56;10.70;99.90
20670;DHT22;10494;50.868;4.180;2023-12-29T15:31:25;10.70;99.90
20670;DHT22;10494;50.868;4.180;2023-12-29T15:33:51;10.80;99.90
20670;DHT22;10494;50.868;4.180;2023-12-29T15:36:18;10.80;99.90
20670;DHT22;10494;50.868;4.180;2023-12-29T15:38:47;10.80;99.90
20670;DHT22;10494;50.868;4.180;2023-12-29T15:41:13;10.80;99.90
20670;DHT22;10494;50.868;4.180;2023-12-29T15:43:38;10.80;99.90
20670;DHT22;10494;50.868;4.180;2023-12-29T15:46:15;10.90;99.90
20670;DHT22;10494;50.868;4.180;2023-12-29T15:48:44;10.90;99.90
20670;DHT22;10494;50.868;4.180;2023-12-29T15:51:11;10.90;99.90
20670;DHT22;10494;50.868;4.180;2023-12-29T15:53:37;10.90;99.90
20670;DHT22;10494;50.868;4.180;2023-12-29T15:56:05;10.90;99.90
20670;DHT22;10494;50.868;4.180;2023-12-29T15:58:31;10.90;99.90